createdAt,value
2023-05-24T00:02:15.709Z,101617.91
2023-05-24T00:04:42.686Z,101616.22
2023-05-24T00:07:09.894Z,101608.03
2023-05-24T00:09:36.777Z,101629.03
2023-05-24T00:12:03.620Z,101627.38
2023-05-24T00:14:30.511Z,101611.28
2023-05-24T00:16:57.743Z,101627.16
2023-05-24T00:19:24.865Z,101623.63
2023-05-24T00:21:51.742Z,101601.59
2023-05-24T00:24:18.439Z,101617.28
2023-05-24T00:26:45.619Z,101613.06
2023-05-24T00:29:12.574Z,101603.81
2023-05-24T00:31:39.338Z,101598.03
2023-05-24T00:34:06.636Z,101606.63
2023-05-24T00:36:34.051Z,101593.00
2023-05-24T00:39:00.947Z,101595.97
2023-05-24T00:41:27.696Z,101605.59
2023-05-24T00:43:54.462Z,101593.09
2023-05-24T00:46:33.167Z,101596.25
2023-05-24T00:49:01.537Z,101585.31
2023-05-24T00:51:28.724Z,101589.34
2023-05-24T00:53:56.125Z,101553.34
2023-05-24T00:56:23.572Z,101592.06
2023-05-24T00:58:54.689Z,101576.69
2023-05-24T01:01:25.817Z,101587.88
2023-05-24T01:03:54.558Z,101592.06
2023-05-24T01:06:21.986Z,101584.78
2023-05-24T01:09:20.386Z,101586.44
2023-05-24T01:12:13.333Z,101593.53
2023-05-24T01:14:49.254Z,101594.66
2023-05-24T01:17:24.141Z,101595.88
2023-05-24T01:20:02.420Z,101588.41
2023-05-24T01:22:53.613Z,101593.44
2023-05-24T01:25:37.308Z,101587.63
2023-05-24T01:28:04.459Z,101594.94
2023-05-24T01:30:31.284Z,101587.00
2023-05-24T01:32:58.051Z,101574.69
2023-05-24T01:35:24.693Z,101595.88
2023-05-24T01:37:51.332Z,101586.00
2023-05-24T01:40:18.386Z,101589.16
2023-05-24T01:42:52.413Z,101591.22
2023-05-24T01:45:37.354Z,101588.50
2023-05-24T01:48:25.707Z,101588.31
2023-05-24T01:50:52.337Z,101588.78
2023-05-24T01:53:23.224Z,101595.88
2023-05-24T01:55:53.483Z,101591.31
2023-05-24T01:58:23.851Z,101589.72
2023-05-24T02:00:51.927Z,101592.22
2023-05-24T02:03:19.957Z,101587.28
2023-05-24T02:05:47.876Z,101590.63
2023-05-24T02:08:14.664Z,101591.94
2023-05-24T02:10:42.527Z,101570.56
2023-05-24T02:13:11.872Z,101590.34
2023-05-24T02:15:38.608Z,101590.34
2023-05-24T02:18:08.368Z,101587.63
2023-05-24T02:20:37.973Z,101585.00
2023-05-24T02:23:04.846Z,101590.41
2023-05-24T02:25:32.679Z,101589.56
2023-05-24T02:27:59.779Z,101585.81
2023-05-24T02:30:27.258Z,101596.31
2023-05-24T02:32:53.944Z,101595.91
2023-05-24T02:35:20.920Z,101597.78
2023-05-24T02:37:48.110Z,101589.56
2023-05-24T02:40:14.918Z,101600.94
2023-05-24T02:42:41.890Z,101594.31
2023-05-24T02:45:09.241Z,101595.59
2023-05-24T02:47:36.022Z,101596.81
2023-05-24T02:50:02.828Z,101601.66
2023-05-24T02:52:29.688Z,101616.88
2023-05-24T02:54:56.742Z,101603.16
2023-05-24T02:57:23.416Z,101603.34
2023-05-24T02:59:50.200Z,101606.03
2023-05-24T03:02:18.107Z,101606.72
2023-05-24T03:04:44.833Z,101591.78
2023-05-24T03:07:11.585Z,101608.84
2023-05-24T03:09:38.203Z,101619.03
2023-05-24T03:12:05.795Z,101613.59
2023-05-24T03:14:32.426Z,101621.94
2023-05-24T03:16:59.202Z,101620.63
2023-05-24T03:19:26.045Z,101618.13
2023-05-24T03:21:52.658Z,101620.00
2023-05-24T03:24:20.809Z,101617.91
2023-05-24T03:26:47.599Z,101615.22
2023-05-24T03:29:14.175Z,101614.38
2023-05-24T03:31:41.905Z,101596.75
2023-05-24T03:34:08.482Z,101623.75
2023-05-24T03:36:35.117Z,101622.91
2023-05-24T03:39:04.450Z,101607.13
2023-05-24T03:41:31.341Z,101629.25
2023-05-24T03:43:58.043Z,101628.63
2023-05-24T03:46:24.841Z,101609.50
2023-05-24T03:48:51.649Z,101626.66
2023-05-24T03:51:18.374Z,101629.16
2023-05-24T03:53:45.281Z,101616.59
2023-05-24T03:56:12.592Z,101632.44
2023-05-24T03:58:40.441Z,101637.09
2023-05-24T04:01:07.117Z,101633.00
2023-05-24T04:03:34.393Z,101639.25
2023-05-24T04:06:01.573Z,101638.41
2023-05-24T04:08:28.185Z,101634.50
2023-05-24T04:10:54.834Z,101640.75
2023-05-24T04:13:21.410Z,101626.75
2023-05-24T04:15:48.058Z,101636.44
2023-05-24T04:18:14.864Z,101643.53
2023-05-24T04:20:41.994Z,101648.13
2023-05-24T04:23:08.836Z,101651.28
2023-05-24T04:25:35.570Z,101648.84
2023-05-24T04:28:06.234Z,101655.75
2023-05-24T04:30:32.927Z,101657.81
2023-05-24T04:32:59.705Z,101663.91
2023-05-24T04:35:26.331Z,101667.88
2023-05-24T04:37:53.067Z,101674.59
2023-05-24T04:40:23.050Z,101668.81
2023-05-24T04:42:50.525Z,101665.44
2023-05-24T04:45:17.321Z,101671.34
2023-05-24T04:47:44.270Z,101660.69
2023-05-24T04:50:17.046Z,101671.78
2023-05-24T04:52:43.706Z,101672.72
2023-05-24T04:55:11.009Z,101677.28
2023-05-24T04:57:37.805Z,101655.84
2023-05-24T05:00:05.284Z,101686.38
2023-05-24T05:02:33.194Z,101670.44
2023-05-24T05:04:59.913Z,101686.94
2023-05-24T05:07:26.615Z,101699.00
2023-05-24T05:09:53.297Z,101697.59
2023-05-24T05:12:19.909Z,101701.72
2023-05-24T05:14:46.550Z,101703.38
2023-05-24T05:17:13.753Z,101693.84
2023-05-24T05:19:41.159Z,101703.94
2023-05-24T05:22:07.865Z,101706.09
2023-05-24T05:24:34.804Z,101702.41
2023-05-24T05:27:02.670Z,101711.06
2023-05-24T05:29:29.370Z,101681.47
2023-05-24T05:31:56.233Z,101705.78
2023-05-24T05:34:22.897Z,101671.44
2023-05-24T05:36:49.657Z,101708.72
2023-05-24T05:39:16.510Z,101702.41
2023-05-24T05:41:45.979Z,101706.50
2023-05-24T05:44:13.717Z,101713.75
2023-05-24T05:46:41.610Z,101680.44
2023-05-24T05:49:11.481Z,101719.03
2023-05-24T05:51:38.926Z,101701.00
2023-05-24T05:54:06.236Z,101702.31
2023-05-24T05:56:32.972Z,101680.25
2023-05-24T05:58:59.742Z,101738.16
2023-05-24T06:01:26.383Z,101697.31
2023-05-24T06:03:55.073Z,101733.38
2023-05-24T06:06:21.830Z,101738.19
2023-05-24T06:08:48.489Z,101736.34
2023-05-24T06:11:15.168Z,101741.56
2023-05-24T06:13:41.862Z,101745.38
2023-05-24T06:16:10.437Z,101747.13
2023-05-24T06:18:37.494Z,101744.69
2023-05-24T06:21:04.545Z,101707.22
2023-05-24T06:23:32.503Z,101736.75
2023-05-24T06:25:59.347Z,101753.09
2023-05-24T06:28:26.225Z,101761.28
2023-05-24T06:30:53.137Z,101765.91
2023-05-24T06:33:19.894Z,101758.53
2023-05-24T06:35:46.963Z,101767.34
2023-05-24T06:38:13.692Z,101771.66
2023-05-24T06:40:41.250Z,101777.81
2023-05-24T06:43:08.139Z,101771.53
2023-05-24T06:45:34.837Z,101777.56
2023-05-24T06:48:01.692Z,101778.59
2023-05-24T06:50:28.518Z,101771.97
2023-05-24T06:52:55.331Z,101777.03
2023-05-24T06:55:22.212Z,101785.03
2023-05-24T06:57:48.988Z,101782.63
2023-05-24T07:00:16.163Z,101795.06
2023-05-24T07:02:42.847Z,101794.47
2023-05-24T07:05:12.505Z,101792.84
2023-05-24T07:07:42.446Z,101769.13
2023-05-24T07:10:12.055Z,101796.22
2023-05-24T07:12:38.850Z,101799.97
2023-05-24T07:15:08.694Z,101797.38
2023-05-24T07:17:37.522Z,101775.53
2023-05-24T07:20:10.137Z,101811.41
2023-05-24T07:22:37.293Z,101816.59
2023-05-24T07:25:04.747Z,101782.91
2023-05-24T07:27:31.541Z,101832.25
2023-05-24T07:29:58.808Z,101825.63
2023-05-24T07:32:25.599Z,101784.91
2023-05-24T07:34:52.566Z,101825.03
2023-05-24T07:37:19.233Z,101829.72
2023-05-24T07:39:46.087Z,101832.91
2023-05-24T07:42:12.779Z,101832.41
2023-05-24T07:44:39.899Z,101831.28
2023-05-24T07:47:06.832Z,101828.41
2023-05-24T07:49:33.606Z,101847.97
2023-05-24T07:52:00.346Z,101845.25
2023-05-24T07:54:27.058Z,101847.34
2023-05-24T07:56:53.827Z,101836.00
2023-05-24T07:59:20.620Z,101841.66
2023-05-24T08:01:47.842Z,101841.44
2023-05-24T08:04:14.792Z,101856.31
2023-05-24T08:06:42.155Z,101848.34
2023-05-24T08:09:09.097Z,101855.91
2023-05-24T08:11:35.877Z,101855.28
2023-05-24T08:14:02.602Z,101869.38
2023-05-24T08:16:29.493Z,101855.53
2023-05-24T08:18:56.308Z,101858.03
2023-05-24T08:21:23.592Z,101821.34
2023-05-24T08:23:50.841Z,101854.75
2023-05-24T08:26:19.398Z,101858.72
2023-05-24T08:28:46.459Z,101847.34
2023-05-24T08:31:13.303Z,101844.00
2023-05-24T08:33:41.283Z,101844.88
2023-05-24T08:36:08.051Z,101850.59
2023-05-24T08:38:34.645Z,101853.59
2023-05-24T08:41:07.198Z,101854.50
2023-05-24T08:43:35.528Z,101859.50
2023-05-24T08:46:03.543Z,101866.72
2023-05-24T08:48:31.745Z,101862.06
2023-05-24T08:50:59.506Z,101863.22
2023-05-24T08:53:27.013Z,101875.16
2023-05-24T08:55:55.962Z,101875.50
2023-05-24T08:58:22.887Z,101877.75
2023-05-24T09:00:49.578Z,101877.06
2023-05-24T09:03:17.728Z,101862.38
2023-05-24T09:05:45.335Z,101882.03
2023-05-24T09:08:13.559Z,101884.91
2023-05-24T09:10:52.780Z,101883.84
2023-05-24T09:13:20.592Z,101876.44
2023-05-24T09:15:47.339Z,101890.06
2023-05-24T09:18:14.132Z,101888.44
2023-05-24T09:20:44.178Z,101893.25
2023-05-24T09:23:15.510Z,101887.06
2023-05-24T09:25:46.548Z,101892.63
2023-05-24T09:28:16.377Z,101891.44
2023-05-24T09:30:57.347Z,101892.94
2023-05-24T09:33:24.006Z,101885.56
2023-05-24T09:35:50.609Z,101897.31
2023-05-24T09:38:18.952Z,101896.75
2023-05-24T09:40:46.828Z,101889.69
2023-05-24T09:43:14.636Z,101897.88
2023-05-24T09:45:44.480Z,101871.88
2023-05-24T09:48:15.462Z,101891.97
2023-05-24T09:50:42.553Z,101895.25
2023-05-24T09:53:11.011Z,101905.53
2023-05-24T09:55:38.015Z,101886.50
2023-05-24T09:58:12.829Z,101911.22
2023-05-24T10:00:43.978Z,101911.28
2023-05-24T10:03:12.990Z,101888.44
2023-05-24T10:05:44.581Z,101910.31
2023-05-24T10:08:14.525Z,101898.91
2023-05-24T10:10:42.384Z,101909.19
2023-05-24T10:13:10.245Z,101910.75
2023-05-24T10:15:36.963Z,101905.25
2023-05-24T10:18:10.653Z,101908.56
2023-05-24T10:20:38.076Z,101923.25
2023-05-24T10:23:12.557Z,101919.22
2023-05-24T10:25:44.988Z,101920.19
2023-05-24T10:28:15.094Z,101923.00
2023-05-24T10:30:53.596Z,101921.63
2023-05-24T10:33:23.292Z,101929.00
2023-05-24T10:35:51.275Z,101924.81
2023-05-24T10:38:22.167Z,101918.66
2023-05-24T10:40:49.124Z,101924.03
2023-05-24T10:43:17.601Z,101924.38
2023-05-24T10:45:49.411Z,101924.81
2023-05-24T10:48:17.030Z,101914.81
2023-05-24T10:50:44.980Z,101926.25
2023-05-24T10:53:15.893Z,101923.38
2023-05-24T10:55:59.822Z,101920.06
2023-05-24T10:58:32.992Z,101918.84
2023-05-24T11:01:00.229Z,101918.97
2023-05-24T11:03:33.272Z,101919.75
2023-05-24T11:06:00.369Z,101932.69
2023-05-24T11:08:33.370Z,101932.41
2023-05-24T11:13:43.187Z,101928.53
2023-05-24T11:16:12.879Z,101922.41
2023-05-24T11:18:40.289Z,101918.44
2023-05-24T11:21:08.077Z,101928.50
2023-05-24T11:23:38.295Z,101915.91
2023-05-24T11:26:07.327Z,101920.34
2023-05-24T11:28:37.739Z,101918.38
2023-05-24T11:31:10.373Z,101915.53
2023-05-24T11:33:42.688Z,101913.56
2023-05-24T11:36:11.165Z,101910.16
2023-05-24T11:38:37.945Z,101904.59
2023-05-24T11:41:05.347Z,101921.47
2023-05-24T11:43:32.173Z,101937.00
2023-05-24T11:45:58.941Z,101927.66
2023-05-24T11:48:26.218Z,101939.34
2023-05-24T11:50:53.215Z,101924.72
2023-05-24T11:53:21.220Z,101936.78
2023-05-24T11:55:48.815Z,101931.59
2023-05-24T11:58:32.780Z,101939.88
2023-05-24T12:00:59.805Z,101946.22
2023-05-24T12:03:26.532Z,101945.00
2023-05-24T12:05:57.330Z,101944.84
2023-05-24T12:08:24.024Z,101941.69
2023-05-24T12:10:51.795Z,101950.00
2023-05-24T12:13:25.316Z,101930.94
2023-05-24T12:15:56.339Z,101944.63
2023-05-24T12:18:26.148Z,101947.03
2023-05-24T12:20:53.370Z,101949.03
2023-05-24T12:23:23.361Z,101953.28
2023-05-24T12:25:50.565Z,101948.88
2023-05-24T12:28:21.849Z,101944.19
2023-05-24T12:30:50.075Z,101936.38
2023-05-24T12:33:19.222Z,101949.94
2023-05-24T12:35:47.290Z,101933.44
2023-05-24T12:38:13.941Z,101951.53
2023-05-24T12:40:44.633Z,101954.91
2023-05-24T12:43:16.156Z,101950.69
2023-05-24T12:45:43.048Z,101958.88
2023-05-24T12:48:10.937Z,101961.16
2023-05-24T12:50:37.666Z,101963.25
2023-05-24T12:53:04.766Z,101966.56
2023-05-24T12:55:31.546Z,101964.84
2023-05-24T12:57:58.848Z,101966.63
2023-05-24T13:00:27.478Z,101964.16
2023-05-24T13:02:56.904Z,101967.91
2023-05-24T13:05:24.325Z,101974.66
2023-05-24T13:07:54.636Z,101966.41
2023-05-24T13:10:21.336Z,101967.72
2023-05-24T13:12:48.176Z,101963.38
2023-05-24T13:15:15.190Z,101958.00
2023-05-24T13:17:42.835Z,101966.97
2023-05-24T13:20:11.540Z,101967.31
2023-05-24T13:22:41.859Z,101958.84
2023-05-24T13:25:12.407Z,101949.53
2023-05-24T13:27:39.269Z,101955.88
2023-05-24T13:30:07.275Z,101961.25
2023-05-24T13:32:34.285Z,101966.22
2023-05-24T13:35:02.165Z,101964.81
2023-05-24T13:37:30.002Z,101969.25
2023-05-24T13:39:56.722Z,101961.16
2023-05-24T13:42:23.472Z,101968.31
2023-05-24T13:44:50.313Z,101960.31
2023-05-24T13:47:31.062Z,101963.00
2023-05-24T13:50:06.479Z,101952.19
2023-05-24T13:52:37.993Z,101949.97
2023-05-24T13:55:12.209Z,101943.25
2023-05-24T13:57:50.996Z,101945.31
2023-05-24T14:00:19.382Z,101944.69
2023-05-24T14:02:47.016Z,101944.53
2023-05-24T14:05:26.794Z,101955.94
2023-05-24T14:07:55.799Z,101955.56
2023-05-24T14:10:22.603Z,101946.56
2023-05-24T14:13:03.344Z,101946.69
2023-05-24T14:15:36.645Z,101948.91
2023-05-24T14:18:07.808Z,101949.53
2023-05-24T14:20:40.740Z,101948.44
2023-05-24T14:23:08.623Z,101955.31
2023-05-24T14:25:36.152Z,101952.59
2023-05-24T14:28:03.917Z,101956.78
2023-05-24T14:30:33.926Z,101960.25
2023-05-24T14:33:03.387Z,101946.72
2023-05-24T14:35:30.786Z,101957.88
2023-05-24T14:37:57.572Z,101957.69
2023-05-24T14:40:24.336Z,101959.91
2023-05-24T14:42:51.364Z,101945.50
2023-05-24T14:45:18.101Z,101967.44
2023-05-24T14:47:44.837Z,101963.31
2023-05-24T14:50:11.781Z,101975.41
2023-05-24T14:52:38.717Z,101969.88
2023-05-24T14:55:05.923Z,101976.31
2023-05-24T14:57:32.725Z,101968.13
2023-05-24T14:59:59.665Z,101971.59
2023-05-24T15:02:26.599Z,101975.66
2023-05-24T15:04:53.514Z,101974.66
2023-05-24T15:07:20.316Z,101948.38
2023-05-24T15:09:47.004Z,101966.41
2023-05-24T15:12:13.674Z,101973.19
2023-05-24T15:14:40.706Z,101961.91
2023-05-24T15:17:07.527Z,101972.81
2023-05-24T15:19:34.450Z,101962.16
2023-05-24T15:22:01.205Z,101958.38
2023-05-24T15:24:27.969Z,101973.59
2023-05-24T15:26:54.636Z,101960.50
2023-05-24T15:29:21.601Z,101968.16
2023-05-24T15:31:48.440Z,101962.72
2023-05-24T15:34:15.109Z,101966.09
2023-05-24T15:36:41.997Z,101962.72
2023-05-24T15:39:08.703Z,101968.31
2023-05-24T15:41:45.082Z,101965.63
2023-05-24T15:44:16.675Z,101976.41
2023-05-24T15:46:46.071Z,101974.84
2023-05-24T15:49:13.307Z,101948.13
2023-05-24T15:52:11.434Z,101973.41
2023-05-24T15:54:49.276Z,101968.50
2023-05-24T15:57:19.568Z,101937.53
2023-05-24T15:59:59.505Z,101961.59
2023-05-24T16:02:27.252Z,101961.00
2023-05-24T16:04:58.045Z,101943.69
2023-05-24T16:07:24.745Z,101967.72
2023-05-24T16:09:56.945Z,101965.31
2023-05-24T16:12:33.592Z,101964.06
2023-05-24T16:15:20.480Z,101960.38
2023-05-24T16:18:00.072Z,101945.41
2023-05-24T16:20:37.064Z,101920.81
2023-05-24T16:23:28.744Z,101957.44
2023-05-24T16:25:56.671Z,101957.91
2023-05-24T16:28:34.376Z,101942.06
2023-05-24T16:31:06.474Z,101958.31
2023-05-24T16:33:40.151Z,101969.16
2023-05-24T16:36:14.862Z,101974.66
2023-05-24T16:38:45.181Z,101972.59
2023-05-24T16:41:19.423Z,101969.41
2023-05-24T16:43:52.965Z,101967.97
2023-05-24T16:46:28.518Z,101973.13
2023-05-24T16:48:58.705Z,101932.47
2023-05-24T16:51:35.487Z,101966.81
2023-05-24T16:54:12.551Z,101951.88
2023-05-24T16:56:51.680Z,101957.69
2023-05-24T16:59:28.621Z,101953.56
2023-05-24T17:02:02.651Z,101960.72
2023-05-24T17:04:33.953Z,101959.38
2023-05-24T17:07:03.984Z,101960.78
2023-05-24T17:10:00.206Z,101965.38
2023-05-24T17:12:29.239Z,101956.81
2023-05-24T17:15:00.294Z,101959.47
2023-05-24T17:17:35.769Z,101961.50
2023-05-24T17:20:14.731Z,101965.91
2023-05-24T17:22:47.316Z,101962.22
2023-05-24T17:25:16.951Z,101970.81
2023-05-24T17:27:44.135Z,101983.25
2023-05-24T17:30:17.344Z,101967.31
2023-05-24T17:32:44.602Z,101939.41
2023-05-24T17:35:20.431Z,101976.41
2023-05-24T17:37:48.726Z,101973.53
2023-05-24T17:40:16.223Z,101925.13
2023-05-24T17:42:43.694Z,101977.44
2023-05-24T17:45:13.467Z,101976.72
2023-05-24T17:47:44.151Z,101978.84
2023-05-24T17:50:13.906Z,101978.13
2023-05-24T17:52:50.813Z,101985.41
2023-05-24T17:55:21.798Z,101988.97
2023-05-24T17:57:55.319Z,101985.50
2023-05-24T18:00:25.439Z,101995.91
2023-05-24T18:03:01.462Z,101993.69
2023-05-24T18:05:35.540Z,101991.19
2023-05-24T18:08:05.573Z,101988.53
2023-05-24T18:10:43.112Z,101991.47
2023-05-24T18:13:13.118Z,101981.59
2023-05-24T18:15:41.467Z,101997.84
2023-05-24T18:18:20.555Z,101994.94
2023-05-24T18:20:55.403Z,102006.94
2023-05-24T18:23:22.967Z,101985.53
2023-05-24T18:26:01.406Z,101998.31
2023-05-24T18:28:33.031Z,102006.94
2023-05-24T18:31:28.659Z,101999.13
2023-05-24T18:34:01.504Z,101983.25
2023-05-24T18:36:29.846Z,101995.03
2023-05-24T18:38:57.282Z,101999.03
2023-05-24T18:41:24.380Z,102009.78
2023-05-24T18:43:53.970Z,102012.69
2023-05-24T18:46:21.299Z,101990.03
2023-05-24T18:48:53.903Z,102022.13
2023-05-24T18:51:21.232Z,102012.66
2023-05-24T18:53:51.897Z,102009.06
2023-05-24T18:56:22.680Z,101964.88
2023-05-24T18:59:01.427Z,102013.94
2023-05-24T19:01:31.709Z,102019.88
2023-05-24T19:04:02.780Z,102021.25
2023-05-24T19:06:33.046Z,102023.84
2023-05-24T19:09:03.221Z,102010.41
2023-05-24T19:11:31.088Z,102036.84
2023-05-24T19:13:58.144Z,102018.81
2023-05-24T19:16:35.611Z,102042.47
2023-05-24T19:19:04.017Z,102039.63
2023-05-24T19:21:35.248Z,102038.59
2023-05-24T19:24:02.377Z,102039.31
2023-05-24T19:26:30.715Z,102037.84
2023-05-24T19:28:58.334Z,102044.91
2023-05-24T19:31:25.710Z,102043.41
2023-05-24T19:36:26.026Z,102025.63
2023-05-24T19:38:52.729Z,102041.53
2023-05-24T19:41:19.377Z,102040.69
2023-05-24T19:43:46.034Z,102029.59
2023-05-24T19:46:14.747Z,102025.44
2023-05-24T19:48:44.608Z,102041.88
2023-05-24T19:51:15.742Z,102047.44
2023-05-24T19:53:43.986Z,102041.16
2023-05-24T19:56:11.916Z,102044.47
2023-05-24T19:58:38.930Z,102037.72
2023-05-24T20:01:05.820Z,102039.53
2023-05-24T20:03:32.752Z,102055.03
2023-05-24T20:05:59.663Z,102047.97
2023-05-24T20:08:26.516Z,102051.59
2023-05-24T20:10:53.285Z,102040.50
2023-05-24T20:13:21.701Z,102046.97
2023-05-24T20:15:48.276Z,102051.78
2023-05-24T20:18:14.888Z,102050.44
2023-05-24T20:20:43.127Z,102037.59
2023-05-24T20:23:12.060Z,102057.59
2023-05-24T20:25:41.982Z,102049.19
2023-05-24T20:28:26.021Z,102052.22
2023-05-24T20:30:56.584Z,102051.91
2023-05-24T20:33:23.833Z,102062.06
2023-05-24T20:35:53.146Z,102052.44
2023-05-24T20:38:20.472Z,102062.56
2023-05-24T20:40:47.161Z,102053.63
2023-05-24T20:43:13.970Z,102066.84
2023-05-24T20:45:42.583Z,102053.31
2023-05-24T20:48:09.538Z,102077.81
2023-05-24T20:50:38.367Z,102075.13
2023-05-24T20:53:05.033Z,102083.28
2023-05-24T20:55:31.711Z,102083.13
2023-05-24T20:57:58.410Z,102082.28
2023-05-24T21:00:25.632Z,102084.88
2023-05-24T21:02:52.370Z,102084.88
2023-05-24T21:05:19.186Z,102084.84
2023-05-24T21:07:46.019Z,102088.41
2023-05-24T21:10:17.688Z,102102.28
2023-05-24T21:12:44.798Z,102096.22
2023-05-24T21:15:12.590Z,102105.16
2023-05-24T21:17:39.529Z,102099.75
2023-05-24T21:20:07.646Z,102098.25
2023-05-24T21:22:34.369Z,102100.09
2023-05-24T21:25:01.376Z,102109.91
2023-05-24T21:27:28.194Z,102109.38
2023-05-24T21:29:54.901Z,102108.50
2023-05-24T21:32:21.715Z,102091.78
2023-05-24T21:34:49.904Z,102091.59
2023-05-24T21:37:17.495Z,102112.06
2023-05-24T21:39:44.424Z,102109.34
2023-05-24T21:42:12.233Z,102087.25
2023-05-24T21:44:39.066Z,102123.75
2023-05-24T21:47:05.770Z,102123.03
2023-05-24T21:49:32.545Z,102118.47
2023-05-24T21:51:59.215Z,102119.84
2023-05-24T21:54:25.845Z,102124.22
2023-05-24T21:56:52.878Z,102119.31
2023-05-24T21:59:21.399Z,102117.31
2023-05-24T22:01:48.809Z,102084.53
2023-05-24T22:04:15.792Z,102115.13
2023-05-24T22:06:44.847Z,102122.56
2023-05-24T22:09:13.719Z,102111.91
2023-05-24T22:11:41.870Z,102124.41
2023-05-24T22:14:08.587Z,102140.94
2023-05-24T22:16:36.087Z,102104.44
2023-05-24T22:19:03.823Z,102138.56
2023-05-24T22:21:33.552Z,102133.50
2023-05-24T22:24:00.673Z,102131.13
2023-05-24T22:26:28.008Z,102141.66
2023-05-24T22:29:00.436Z,102136.03
2023-05-24T22:31:31.067Z,102124.16
2023-05-24T22:34:01.189Z,102129.75
2023-05-24T22:36:34.669Z,102141.25
2023-05-24T22:39:02.074Z,102123.97
2023-05-24T22:41:28.754Z,102138.22
2023-05-24T22:43:56.986Z,102138.34
2023-05-24T22:46:23.740Z,102143.94
2023-05-24T22:48:53.756Z,102147.22
2023-05-24T22:51:20.651Z,102139.09
2023-05-24T22:53:48.359Z,102151.28
2023-05-24T22:56:15.139Z,102147.59
2023-05-24T22:58:41.884Z,102150.63
2023-05-24T23:01:08.730Z,102119.19
2023-05-24T23:03:35.720Z,102155.19
2023-05-24T23:06:04.567Z,102150.78
2023-05-24T23:08:32.236Z,102157.53
2023-05-24T23:10:59.722Z,102149.50
2023-05-24T23:13:28.146Z,102143.28
2023-05-24T23:15:58.654Z,102135.09
2023-05-24T23:18:26.563Z,102116.13
2023-05-24T23:20:56.520Z,102152.03
2023-05-24T23:23:24.855Z,102149.06
2023-05-24T23:25:51.942Z,102145.97
2023-05-24T23:28:18.837Z,102141.19
2023-05-24T23:30:46.082Z,102147.16
2023-05-24T23:33:13.174Z,102144.78
2023-05-24T23:35:41.097Z,102150.78
2023-05-24T23:38:07.900Z,102155.25
2023-05-24T23:40:36.450Z,102151.13
2023-05-24T23:43:04.202Z,102155.16
2023-05-24T23:45:31.397Z,102152.03
2023-05-24T23:47:58.863Z,102142.66
2023-05-24T23:50:27.408Z,102148.75
2023-05-24T23:52:54.513Z,102151.88
2023-05-24T23:55:25.049Z,102156.91
2023-05-24T23:57:52.191Z,102148.94
